sensor_id;sensor_type;location;lat;lon;timestamp;temperature;humidity
6293;DHT22;3179;54.350;10.102;2022-08-01T00:01:17;20.70;99.90
6293;DHT22;3179;54.350;10.102;2022-08-01T00:03:44;20.70;99.90
6293;DHT22;3179;54.350;10.102;2022-08-01T00:06:10;20.70;99.90
6293;DHT22;3179;54.350;10.102;2022-08-01T00:08:37;20.70;99.90
6293;DHT22;3179;54.350;10.102;2022-08-01T00:11:05;20.70;99.90
6293;DHT22;3179;54.350;10.102;2022-08-01T00:13:34;20.70;99.90
6293;DHT22;3179;54.350;10.102;2022-08-01T00:16:01;20.70;99.90
6293;DHT22;3179;54.350;10.102;2022-08-01T00:18:28;20.70;99.90
6293;DHT22;3179;54.350;10.102;2022-08-01T00:20:55;20.70;99.90
6293;DHT22;3179;54.350;10.102;2022-08-01T00:23:21;20.70;99.90
6293;DHT22;3179;54.350;10.102;2022-08-01T00:25:48;20.70;99.90
6293;DHT22;3179;54.350;10.102;2022-08-01T00:28:16;20.70;99.90
6293;DHT22;3179;54.350;10.102;2022-08-01T00:30:43;20.70;99.90
6293;DHT22;3179;54.350;10.102;2022-08-01T00:33:10;20.70;99.90
6293;DHT22;3179;54.350;10.102;2022-08-01T00:35:37;20.70;99.90
6293;DHT22;3179;54.350;10.102;2022-08-01T00:38:03;20.70;99.90
6293;DHT22;3179;54.350;10.102;2022-08-01T00:40:30;20.70;99.90
6293;DHT22;3179;54.350;10.102;2022-08-01T00:42:57;20.60;99.90
6293;DHT22;3179;54.350;10.102;2022-08-01T00:45:25;20.70;99.90
6293;DHT22;3179;54.350;10.102;2022-08-01T00:47:52;20.60;99.90
6293;DHT22;3179;54.350;10.102;2022-08-01T00:50:19;20.70;99.90
6293;DHT22;3179;54.350;10.102;2022-08-01T00:52:46;20.60;99.90
6293;DHT22;3179;54.350;10.102;2022-08-01T00:55:12;20.70;99.90
6293;DHT22;3179;54.350;10.102;2022-08-01T00:57:40;20.60;99.90
6293;DHT22;3179;54.350;10.102;2022-08-01T01:00:08;20.60;99.90
6293;DHT22;3179;54.350;10.102;2022-08-01T01:02:36;20.60;99.90
6293;DHT22;3179;54.350;10.102;2022-08-01T01:05:04;20.60;99.90
6293;DHT22;3179;54.350;10.102;2022-08-01T01:07:34;20.60;99.90
6293;DHT22;3179;54.350;10.102;2022-08-01T01:10:09;20.60;99.90
6293;DHT22;3179;54.350;10.102;2022-08-01T01:12:44;20.60;99.90
6293;DHT22;3179;54.350;10.102;2022-08-01T01:15:17;20.60;99.90
6293;DHT22;3179;54.350;10.102;2022-08-01T01:17:51;20.60;99.90
6293;DHT22;3179;54.350;10.102;2022-08-01T01:20:22;20.60;99.90
6293;DHT22;3179;54.350;10.102;2022-08-01T01:23:01;20.50;99.90
6293;DHT22;3179;54.350;10.102;2022-08-01T01:25:40;20.60;99.90
6293;DHT22;3179;54.350;10.102;2022-08-01T01:28:15;20.50;99.90
6293;DHT22;3179;54.350;10.102;2022-08-01T01:30:46;20.50;99.90
6293;DHT22;3179;54.350;10.102;2022-08-01T01:33:15;20.50;99.90
6293;DHT22;3179;54.350;10.102;2022-08-01T01:35:46;20.50;99.90
6293;DHT22;3179;54.350;10.102;2022-08-01T01:38:17;20.50;99.90
6293;DHT22;3179;54.350;10.102;2022-08-01T01:40:45;20.50;99.90
6293;DHT22;3179;54.350;10.102;2022-08-01T01:43:14;20.50;99.90
6293;DHT22;3179;54.350;10.102;2022-08-01T01:45:42;20.50;99.90
6293;DHT22;3179;54.350;10.102;2022-08-01T01:48:13;20.50;99.90
6293;DHT22;3179;54.350;10.102;2022-08-01T01:50:42;20.50;99.90
6293;DHT22;3179;54.350;10.102;2022-08-01T01:53:10;20.50;99.90
6293;DHT22;3179;54.350;10.102;2022-08-01T01:55:39;20.50;99.90
6293;DHT22;3179;54.350;10.102;2022-08-01T01:58:07;20.50;99.90
6293;DHT22;3179;54.350;10.102;2022-08-01T02:00:35;20.50;99.90
6293;DHT22;3179;54.350;10.102;2022-08-01T02:03:06;20.50;99.90
6293;DHT22;3179;54.350;10.102;2022-08-01T02:05:35;20.40;99.90
6293;DHT22;3179;54.350;10.102;2022-08-01T02:08:04;20.40;99.90
6293;DHT22;3179;54.350;10.102;2022-08-01T02:10:39;20.40;99.90
6293;DHT22;3179;54.350;10.102;2022-08-01T02:13:06;20.40;99.90
6293;DHT22;3179;54.350;10.102;2022-08-01T02:15:36;20.40;99.90
6293;DHT22;3179;54.350;10.102;2022-08-01T02:18:05;20.40;99.90
6293;DHT22;3179;54.350;10.102;2022-08-01T02:20:36;20.40;99.90
6293;DHT22;3179;54.350;10.102;2022-08-01T02:23:07;20.40;99.90
6293;DHT22;3179;54.350;10.102;2022-08-01T02:25:39;20.40;99.90
6293;DHT22;3179;54.350;10.102;2022-08-01T02:28:12;20.40;99.90
6293;DHT22;3179;54.350;10.102;2022-08-01T02:30:42;20.40;99.90
6293;DHT22;3179;54.350;10.102;2022-08-01T02:33:15;20.40;99.90
6293;DHT22;3179;54.350;10.102;2022-08-01T02:35:48;20.40;99.90
6293;DHT22;3179;54.350;10.102;2022-08-01T02:38:18;20.40;99.90
6293;DHT22;3179;54.350;10.102;2022-08-01T02:40:47;20.40;99.90
6293;DHT22;3179;54.350;10.102;2022-08-01T02:43:20;20.40;99.90
6293;DHT22;3179;54.350;10.102;2022-08-01T02:45:51;20.30;99.90
6293;DHT22;3179;54.350;10.102;2022-08-01T02:48:19;20.30;99.90
6293;DHT22;3179;54.350;10.102;2022-08-01T02:50:51;20.30;99.90
6293;DHT22;3179;54.350;10.102;2022-08-01T02:53:20;20.30;99.90
6293;DHT22;3179;54.350;10.102;2022-08-01T02:55:48;20.30;99.90
6293;DHT22;3179;54.350;10.102;2022-08-01T02:58:16;20.30;99.90
6293;DHT22;3179;54.350;10.102;2022-08-01T03:00:45;20.30;99.90
6293;DHT22;3179;54.350;10.102;2022-08-01T03:03:13;20.30;99.90
6293;DHT22;3179;54.350;10.102;2022-08-01T03:05:41;20.20;99.90
6293;DHT22;3179;54.350;10.102;2022-08-01T03:08:11;20.30;99.90
6293;DHT22;3179;54.350;10.102;2022-08-01T03:10:40;20.30;99.90
6293;DHT22;3179;54.350;10.102;2022-08-01T03:13:08;20.20;99.90
6293;DHT22;3179;54.350;10.102;2022-08-01T03:15:39;20.20;99.90
6293;DHT22;3179;54.350;10.102;2022-08-01T03:18:08;20.20;99.90
6293;DHT22;3179;54.350;10.102;2022-08-01T03:20:35;20.20;99.90
6293;DHT22;3179;54.350;10.102;2022-08-01T03:23:05;20.20;99.90
6293;DHT22;3179;54.350;10.102;2022-08-01T03:25:37;20.20;99.90
6293;DHT22;3179;54.350;10.102;2022-08-01T03:28:06;20.20;99.90
6293;DHT22;3179;54.350;10.102;2022-08-01T03:30:34;20.20;99.90
6293;DHT22;3179;54.350;10.102;2022-08-01T03:33:06;20.20;99.90
6293;DHT22;3179;54.350;10.102;2022-08-01T03:35:35;20.20;99.90
6293;DHT22;3179;54.350;10.102;2022-08-01T03:38:04;20.20;99.90
6293;DHT22;3179;54.350;10.102;2022-08-01T03:40:38;20.20;99.90
6293;DHT22;3179;54.350;10.102;2022-08-01T03:43:08;20.20;99.90
6293;DHT22;3179;54.350;10.102;2022-08-01T03:45:41;20.20;99.90
6293;DHT22;3179;54.350;10.102;2022-08-01T03:48:14;20.20;99.90
6293;DHT22;3179;54.350;10.102;2022-08-01T03:50:45;20.20;99.90
6293;DHT22;3179;54.350;10.102;2022-08-01T03:53:17;20.20;99.90
6293;DHT22;3179;54.350;10.102;2022-08-01T03:55:48;20.20;99.90
6293;DHT22;3179;54.350;10.102;2022-08-01T03:58:16;20.10;99.90
6293;DHT22;3179;54.350;10.102;2022-08-01T04:00:44;20.10;99.90
6293;DHT22;3179;54.350;10.102;2022-08-01T04:03:12;20.10;99.90
6293;DHT22;3179;54.350;10.102;2022-08-01T04:05:42;20.10;99.90
6293;DHT22;3179;54.350;10.102;2022-08-01T04:08:09;20.10;99.90
6293;DHT22;3179;54.350;10.102;2022-08-01T04:10:36;20.10;99.90
6293;DHT22;3179;54.350;10.102;2022-08-01T04:13:05;20.10;99.90
6293;DHT22;3179;54.350;10.102;2022-08-01T04:15:32;20.10;99.90
6293;DHT22;3179;54.350;10.102;2022-08-01T04:17:59;20.10;99.90
6293;DHT22;3179;54.350;10.102;2022-08-01T04:20:25;20.10;99.90
6293;DHT22;3179;54.350;10.102;2022-08-01T04:22:52;20.10;99.90
6293;DHT22;3179;54.350;10.102;2022-08-01T04:25:24;20.10;99.90
6293;DHT22;3179;54.350;10.102;2022-08-01T04:27:53;20.10;99.90
6293;DHT22;3179;54.350;10.102;2022-08-01T04:30:25;20.10;99.90
6293;DHT22;3179;54.350;10.102;2022-08-01T04:32:55;20.10;99.90
6293;DHT22;3179;54.350;10.102;2022-08-01T04:35:22;20.10;99.90
6293;DHT22;3179;54.350;10.102;2022-08-01T04:37:51;20.10;99.90
6293;DHT22;3179;54.350;10.102;2022-08-01T04:40:20;20.10;99.90
6293;DHT22;3179;54.350;10.102;2022-08-01T04:42:48;20.10;99.90
6293;DHT22;3179;54.350;10.102;2022-08-01T04:45:16;20.10;99.90
6293;DHT22;3179;54.350;10.102;2022-08-01T04:47:45;20.10;99.90
6293;DHT22;3179;54.350;10.102;2022-08-01T04:50:13;20.10;99.90
6293;DHT22;3179;54.350;10.102;2022-08-01T04:52:41;20.10;99.90
6293;DHT22;3179;54.350;10.102;2022-08-01T04:55:08;20.10;99.90
6293;DHT22;3179;54.350;10.102;2022-08-01T04:57:39;20.10;99.90
6293;DHT22;3179;54.350;10.102;2022-08-01T05:00:08;20.10;99.90
6293;DHT22;3179;54.350;10.102;2022-08-01T05:02:37;20.10;99.90
6293;DHT22;3179;54.350;10.102;2022-08-01T05:05:06;20.10;99.90
6293;DHT22;3179;54.350;10.102;2022-08-01T05:07:32;20.10;99.90
6293;DHT22;3179;54.350;10.102;2022-08-01T05:10:02;20.00;99.90
6293;DHT22;3179;54.350;10.102;2022-08-01T05:12:31;20.00;99.90
6293;DHT22;3179;54.350;10.102;2022-08-01T05:14:58;20.00;99.90
6293;DHT22;3179;54.350;10.102;2022-08-01T05:17:25;20.00;99.90
6293;DHT22;3179;54.350;10.102;2022-08-01T05:19:51;20.00;99.90
6293;DHT22;3179;54.350;10.102;2022-08-01T05:22:20;20.00;99.90
6293;DHT22;3179;54.350;10.102;2022-08-01T05:24:47;20.00;99.90
6293;DHT22;3179;54.350;10.102;2022-08-01T05:27:15;20.00;99.90
6293;DHT22;3179;54.350;10.102;2022-08-01T05:29:41;20.00;99.90
6293;DHT22;3179;54.350;10.102;2022-08-01T05:32:08;20.00;99.90
6293;DHT22;3179;54.350;10.102;2022-08-01T05:34:35;20.00;99.90
6293;DHT22;3179;54.350;10.102;2022-08-01T05:37:04;20.00;99.90
6293;DHT22;3179;54.350;10.102;2022-08-01T05:39:34;20.10;99.90
6293;DHT22;3179;54.350;10.102;2022-08-01T05:42:01;20.10;99.90
6293;DHT22;3179;54.350;10.102;2022-08-01T05:44:27;20.10;99.90
6293;DHT22;3179;54.350;10.102;2022-08-01T05:46:55;20.10;99.90
6293;DHT22;3179;54.350;10.102;2022-08-01T05:49:21;20.10;99.90
6293;DHT22;3179;54.350;10.102;2022-08-01T05:51:49;20.10;99.90
6293;DHT22;3179;54.350;10.102;2022-08-01T05:54:15;20.10;99.90
6293;DHT22;3179;54.350;10.102;2022-08-01T05:56:44;20.10;99.90
6293;DHT22;3179;54.350;10.102;2022-08-01T05:59:10;20.10;99.90
6293;DHT22;3179;54.350;10.102;2022-08-01T06:01:37;20.10;99.90
6293;DHT22;3179;54.350;10.102;2022-08-01T06:04:04;20.10;99.90
6293;DHT22;3179;54.350;10.102;2022-08-01T06:06:31;20.10;99.90
6293;DHT22;3179;54.350;10.102;2022-08-01T06:08:58;20.10;99.90
6293;DHT22;3179;54.350;10.102;2022-08-01T06:11:25;20.10;99.90
6293;DHT22;3179;54.350;10.102;2022-08-01T06:13:53;20.10;99.90
6293;DHT22;3179;54.350;10.102;2022-08-01T06:16:20;20.20;99.90
6293;DHT22;3179;54.350;10.102;2022-08-01T06:18:47;20.10;99.90
6293;DHT22;3179;54.350;10.102;2022-08-01T06:21:14;20.10;99.90
6293;DHT22;3179;54.350;10.102;2022-08-01T06:23:40;20.10;99.90
6293;DHT22;3179;54.350;10.102;2022-08-01T06:26:08;20.10;99.90
6293;DHT22;3179;54.350;10.102;2022-08-01T06:28:35;20.10;99.90
6293;DHT22;3179;54.350;10.102;2022-08-01T06:31:03;20.10;99.90
6293;DHT22;3179;54.350;10.102;2022-08-01T06:33:29;20.10;99.90
6293;DHT22;3179;54.350;10.102;2022-08-01T06:35:56;20.00;99.90
6293;DHT22;3179;54.350;10.102;2022-08-01T06:38:23;20.00;99.90
6293;DHT22;3179;54.350;10.102;2022-08-01T06:40:50;20.00;99.90
6293;DHT22;3179;54.350;10.102;2022-08-01T06:43:17;20.00;99.90
6293;DHT22;3179;54.350;10.102;2022-08-01T06:45:44;20.00;99.90
6293;DHT22;3179;54.350;10.102;2022-08-01T06:48:13;20.00;99.90
6293;DHT22;3179;54.350;10.102;2022-08-01T06:50:40;20.00;99.90
6293;DHT22;3179;54.350;10.102;2022-08-01T06:53:07;20.00;99.90
6293;DHT22;3179;54.350;10.102;2022-08-01T06:55:34;20.00;99.90
6293;DHT22;3179;54.350;10.102;2022-08-01T06:58:00;20.00;99.90
6293;DHT22;3179;54.350;10.102;2022-08-01T07:00:29;20.00;99.90
6293;DHT22;3179;54.350;10.102;2022-08-01T07:02:57;20.00;99.90
6293;DHT22;3179;54.350;10.102;2022-08-01T07:05:26;20.00;99.90
6293;DHT22;3179;54.350;10.102;2022-08-01T07:07:54;20.00;99.90
6293;DHT22;3179;54.350;10.102;2022-08-01T07:10:20;20.00;99.90
6293;DHT22;3179;54.350;10.102;2022-08-01T07:12:47;20.00;99.90
6293;DHT22;3179;54.350;10.102;2022-08-01T07:15:14;20.00;99.90
6293;DHT22;3179;54.350;10.102;2022-08-01T07:17:42;20.00;99.90
6293;DHT22;3179;54.350;10.102;2022-08-01T07:20:10;20.00;99.90
6293;DHT22;3179;54.350;10.102;2022-08-01T07:22:39;20.00;99.90
6293;DHT22;3179;54.350;10.102;2022-08-01T07:25:06;20.00;99.90
6293;DHT22;3179;54.350;10.102;2022-08-01T07:27:34;20.10;99.90
6293;DHT22;3179;54.350;10.102;2022-08-01T07:30:01;20.10;99.90
6293;DHT22;3179;54.350;10.102;2022-08-01T07:32:28;20.10;99.90
6293;DHT22;3179;54.350;10.102;2022-08-01T07:34:55;20.00;99.90
6293;DHT22;3179;54.350;10.102;2022-08-01T07:37:22;20.00;99.90
6293;DHT22;3179;54.350;10.102;2022-08-01T07:39:51;19.90;99.90
6293;DHT22;3179;54.350;10.102;2022-08-01T07:42:17;20.00;99.90
6293;DHT22;3179;54.350;10.102;2022-08-01T07:44:44;20.00;99.90
6293;DHT22;3179;54.350;10.102;2022-08-01T07:47:13;19.90;99.90
6293;DHT22;3179;54.350;10.102;2022-08-01T07:49:41;19.90;99.90
6293;DHT22;3179;54.350;10.102;2022-08-01T07:52:09;19.80;99.90
6293;DHT22;3179;54.350;10.102;2022-08-01T07:54:35;19.80;99.90
6293;DHT22;3179;54.350;10.102;2022-08-01T07:57:04;19.80;99.90
6293;DHT22;3179;54.350;10.102;2022-08-01T07:59:31;19.80;99.90
6293;DHT22;3179;54.350;10.102;2022-08-01T08:01:57;19.80;99.90
6293;DHT22;3179;54.350;10.102;2022-08-01T08:04:24;19.80;99.90
6293;DHT22;3179;54.350;10.102;2022-08-01T08:06:51;19.80;99.90
6293;DHT22;3179;54.350;10.102;2022-08-01T08:09:19;19.80;99.90
6293;DHT22;3179;54.350;10.102;2022-08-01T08:11:46;19.80;99.90
6293;DHT22;3179;54.350;10.102;2022-08-01T08:14:14;19.90;99.90
6293;DHT22;3179;54.350;10.102;2022-08-01T08:16:41;19.90;99.90
6293;DHT22;3179;54.350;10.102;2022-08-01T08:19:08;19.90;99.90
6293;DHT22;3179;54.350;10.102;2022-08-01T08:21:35;19.90;99.90
6293;DHT22;3179;54.350;10.102;2022-08-01T08:24:03;19.90;99.90
6293;DHT22;3179;54.350;10.102;2022-08-01T08:26:51;19.90;99.90
6293;DHT22;3179;54.350;10.102;2022-08-01T08:29:24;20.00;99.90
6293;DHT22;3179;54.350;10.102;2022-08-01T08:31:52;20.00;99.90
6293;DHT22;3179;54.350;10.102;2022-08-01T08:34:19;20.00;99.90
6293;DHT22;3179;54.350;10.102;2022-08-01T08:36:46;20.00;99.90
6293;DHT22;3179;54.350;10.102;2022-08-01T08:39:12;20.00;99.90
6293;DHT22;3179;54.350;10.102;2022-08-01T08:41:39;20.10;99.90
6293;DHT22;3179;54.350;10.102;2022-08-01T08:44:07;20.10;99.90
6293;DHT22;3179;54.350;10.102;2022-08-01T08:46:40;20.20;99.90
6293;DHT22;3179;54.350;10.102;2022-08-01T08:49:08;20.20;99.90
6293;DHT22;3179;54.350;10.102;2022-08-01T08:51:38;20.20;99.90
6293;DHT22;3179;54.350;10.102;2022-08-01T08:54:06;20.20;99.90
6293;DHT22;3179;54.350;10.102;2022-08-01T08:56:34;20.30;99.90
6293;DHT22;3179;54.350;10.102;2022-08-01T08:59:02;20.30;99.90
6293;DHT22;3179;54.350;10.102;2022-08-01T09:01:30;20.30;99.90
6293;DHT22;3179;54.350;10.102;2022-08-01T09:04:01;20.30;99.90
6293;DHT22;3179;54.350;10.102;2022-08-01T09:06:27;20.40;99.90
6293;DHT22;3179;54.350;10.102;2022-08-01T09:08:55;20.40;99.90
6293;DHT22;3179;54.350;10.102;2022-08-01T09:11:22;20.50;99.90
6293;DHT22;3179;54.350;10.102;2022-08-01T09:14:02;20.60;99.90
6293;DHT22;3179;54.350;10.102;2022-08-01T09:16:29;20.70;99.90
6293;DHT22;3179;54.350;10.102;2022-08-01T09:19:12;20.80;99.90
6293;DHT22;3179;54.350;10.102;2022-08-01T09:21:40;20.80;99.90
6293;DHT22;3179;54.350;10.102;2022-08-01T09:24:21;20.80;99.90
6293;DHT22;3179;54.350;10.102;2022-08-01T09:26:48;20.90;99.90
6293;DHT22;3179;54.350;10.102;2022-08-01T09:29:20;21.00;99.90
6293;DHT22;3179;54.350;10.102;2022-08-01T09:31:47;21.00;99.90
6293;DHT22;3179;54.350;10.102;2022-08-01T09:34:16;21.10;99.90
6293;DHT22;3179;54.350;10.102;2022-08-01T09:36:52;21.20;99.90
6293;DHT22;3179;54.350;10.102;2022-08-01T09:39:22;21.20;99.90
6293;DHT22;3179;54.350;10.102;2022-08-01T09:41:49;21.20;99.90
6293;DHT22;3179;54.350;10.102;2022-08-01T09:44:17;21.30;99.90
6293;DHT22;3179;54.350;10.102;2022-08-01T09:46:50;21.30;99.90
6293;DHT22;3179;54.350;10.102;2022-08-01T09:49:28;21.40;99.90
6293;DHT22;3179;54.350;10.102;2022-08-01T09:51:55;21.40;99.90
6293;DHT22;3179;54.350;10.102;2022-08-01T09:54:31;21.40;99.90
6293;DHT22;3179;54.350;10.102;2022-08-01T09:57:08;21.50;99.90
6293;DHT22;3179;54.350;10.102;2022-08-01T09:59:35;21.60;99.90
6293;DHT22;3179;54.350;10.102;2022-08-01T10:02:03;21.70;99.90
6293;DHT22;3179;54.350;10.102;2022-08-01T10:04:31;21.70;99.90
6293;DHT22;3179;54.350;10.102;2022-08-01T10:07:04;21.80;99.90
6293;DHT22;3179;54.350;10.102;2022-08-01T10:09:33;21.80;99.90
6293;DHT22;3179;54.350;10.102;2022-08-01T10:12:01;21.80;99.90
6293;DHT22;3179;54.350;10.102;2022-08-01T10:14:29;21.90;99.90
6293;DHT22;3179;54.350;10.102;2022-08-01T10:16:57;21.90;99.90
6293;DHT22;3179;54.350;10.102;2022-08-01T10:19:26;22.00;99.90
6293;DHT22;3179;54.350;10.102;2022-08-01T10:21:56;22.00;99.90
6293;DHT22;3179;54.350;10.102;2022-08-01T10:24:23;22.10;99.90
6293;DHT22;3179;54.350;10.102;2022-08-01T10:26:52;22.10;99.90
6293;DHT22;3179;54.350;10.102;2022-08-01T10:29:23;22.20;99.80
6293;DHT22;3179;54.350;10.102;2022-08-01T10:31:51;22.30;99.50
6293;DHT22;3179;54.350;10.102;2022-08-01T10:34:19;22.40;99.40
6293;DHT22;3179;54.350;10.102;2022-08-01T10:36:47;22.50;99.30
6293;DHT22;3179;54.350;10.102;2022-08-01T10:39:16;22.60;98.80
6293;DHT22;3179;54.350;10.102;2022-08-01T10:41:44;22.60;98.50
6293;DHT22;3179;54.350;10.102;2022-08-01T10:44:11;22.60;98.30
6293;DHT22;3179;54.350;10.102;2022-08-01T10:46:39;22.60;98.10
6293;DHT22;3179;54.350;10.102;2022-08-01T10:49:11;22.60;97.80
6293;DHT22;3179;54.350;10.102;2022-08-01T10:51:39;22.60;97.50
6293;DHT22;3179;54.350;10.102;2022-08-01T10:54:09;22.70;97.70
6293;DHT22;3179;54.350;10.102;2022-08-01T10:56:43;22.70;97.70
6293;DHT22;3179;54.350;10.102;2022-08-01T10:59:14;22.90;96.90
6293;DHT22;3179;54.350;10.102;2022-08-01T11:01:41;22.90;97.10
6293;DHT22;3179;54.350;10.102;2022-08-01T11:04:10;23.10;97.60
6293;DHT22;3179;54.350;10.102;2022-08-01T11:09:30;23.00;96.60
6293;DHT22;3179;54.350;10.102;2022-08-01T11:12:00;23.10;97.00
6293;DHT22;3179;54.350;10.102;2022-08-01T11:14:29;23.20;97.10
6293;DHT22;3179;54.350;10.102;2022-08-01T11:16:56;23.30;97.00
6293;DHT22;3179;54.350;10.102;2022-08-01T11:20:06;23.40;96.70
6293;DHT22;3179;54.350;10.102;2022-08-01T11:26:20;23.50;93.90
6293;DHT22;3179;54.350;10.102;2022-08-01T11:29:17;23.60;94.50
6293;DHT22;3179;54.350;10.102;2022-08-01T11:31:44;23.70;94.50
6293;DHT22;3179;54.350;10.102;2022-08-01T11:34:11;23.70;96.00
6293;DHT22;3179;54.350;10.102;2022-08-01T11:36:38;23.80;96.10
6293;DHT22;3179;54.350;10.102;2022-08-01T11:39:16;23.80;95.80
6293;DHT22;3179;54.350;10.102;2022-08-01T11:41:46;23.90;94.40
6293;DHT22;3179;54.350;10.102;2022-08-01T11:44:18;23.90;95.00
6293;DHT22;3179;54.350;10.102;2022-08-01T11:46:59;24.00;95.30
6293;DHT22;3179;54.350;10.102;2022-08-01T11:49:44;24.00;94.40
6293;DHT22;3179;54.350;10.102;2022-08-01T11:52:13;24.10;92.80
6293;DHT22;3179;54.350;10.102;2022-08-01T11:54:42;24.10;94.40
6293;DHT22;3179;54.350;10.102;2022-08-01T11:57:12;24.20;94.40
6293;DHT22;3179;54.350;10.102;2022-08-01T11:59:42;24.20;94.20
6293;DHT22;3179;54.350;10.102;2022-08-01T12:02:20;24.30;94.10
6293;DHT22;3179;54.350;10.102;2022-08-01T12:04:53;24.40;93.40
6293;DHT22;3179;54.350;10.102;2022-08-01T12:07:21;24.40;94.10
6293;DHT22;3179;54.350;10.102;2022-08-01T12:10:01;24.40;94.10
6293;DHT22;3179;54.350;10.102;2022-08-01T12:12:34;24.40;93.50
6293;DHT22;3179;54.350;10.102;2022-08-01T12:15:03;24.50;93.60
6293;DHT22;3179;54.350;10.102;2022-08-01T12:17:35;24.50;93.90
6293;DHT22;3179;54.350;10.102;2022-08-01T12:20:04;24.60;93.60
6293;DHT22;3179;54.350;10.102;2022-08-01T12:22:32;24.70;93.60
6293;DHT22;3179;54.350;10.102;2022-08-01T12:25:05;24.80;93.30
6293;DHT22;3179;54.350;10.102;2022-08-01T12:27:34;24.80;92.40
6293;DHT22;3179;54.350;10.102;2022-08-01T12:30:06;24.90;92.60
6293;DHT22;3179;54.350;10.102;2022-08-01T12:32:35;24.90;92.60
6293;DHT22;3179;54.350;10.102;2022-08-01T12:35:04;25.00;92.50
6293;DHT22;3179;54.350;10.102;2022-08-01T12:37:31;25.00;92.20
6293;DHT22;3179;54.350;10.102;2022-08-01T12:40:06;25.10;92.20
6293;DHT22;3179;54.350;10.102;2022-08-01T12:42:38;25.10;92.10
6293;DHT22;3179;54.350;10.102;2022-08-01T12:45:08;25.10;91.40
6293;DHT22;3179;54.350;10.102;2022-08-01T12:47:35;25.20;91.80
6293;DHT22;3179;54.350;10.102;2022-08-01T12:50:04;25.10;91.70
6293;DHT22;3179;54.350;10.102;2022-08-01T12:52:32;25.20;91.70
6293;DHT22;3179;54.350;10.102;2022-08-01T12:55:11;25.20;91.50
6293;DHT22;3179;54.350;10.102;2022-08-01T12:57:41;25.30;89.90
6293;DHT22;3179;54.350;10.102;2022-08-01T13:00:19;25.30;90.80
6293;DHT22;3179;54.350;10.102;2022-08-01T13:02:47;25.30;89.70
6293;DHT22;3179;54.350;10.102;2022-08-01T13:05:16;25.40;90.70
6293;DHT22;3179;54.350;10.102;2022-08-01T13:07:48;25.40;90.70
6293;DHT22;3179;54.350;10.102;2022-08-01T13:10:25;25.50;90.00
6293;DHT22;3179;54.350;10.102;2022-08-01T13:12:56;25.60;88.70
6293;DHT22;3179;54.350;10.102;2022-08-01T13:15:26;25.60;90.20
6293;DHT22;3179;54.350;10.102;2022-08-01T13:17:53;25.60;90.60
6293;DHT22;3179;54.350;10.102;2022-08-01T13:20:31;25.60;90.60
6293;DHT22;3179;54.350;10.102;2022-08-01T13:23:14;25.70;89.40
6293;DHT22;3179;54.350;10.102;2022-08-01T13:25:51;25.70;88.00
6293;DHT22;3179;54.350;10.102;2022-08-01T13:28:22;25.70;87.00
6293;DHT22;3179;54.350;10.102;2022-08-01T13:30:54;25.70;88.80
6293;DHT22;3179;54.350;10.102;2022-08-01T13:33:22;25.80;87.90
6293;DHT22;3179;54.350;10.102;2022-08-01T13:35:51;25.90;89.80
6293;DHT22;3179;54.350;10.102;2022-08-01T13:38:18;26.10;89.40
6293;DHT22;3179;54.350;10.102;2022-08-01T13:40:45;26.50;89.10
6293;DHT22;3179;54.350;10.102;2022-08-01T13:43:12;26.80;88.90
6293;DHT22;3179;54.350;10.102;2022-08-01T13:45:41;27.20;88.80
6293;DHT22;3179;54.350;10.102;2022-08-01T13:48:08;27.50;86.80
6293;DHT22;3179;54.350;10.102;2022-08-01T13:50:35;27.80;87.30
6293;DHT22;3179;54.350;10.102;2022-08-01T13:53:02;28.00;86.80
6293;DHT22;3179;54.350;10.102;2022-08-01T13:55:29;28.20;86.60
6293;DHT22;3179;54.350;10.102;2022-08-01T13:57:56;28.30;85.80
6293;DHT22;3179;54.350;10.102;2022-08-01T14:00:22;28.40;85.20
6293;DHT22;3179;54.350;10.102;2022-08-01T14:02:50;28.50;84.70
6293;DHT22;3179;54.350;10.102;2022-08-01T14:05:17;28.50;84.10
6293;DHT22;3179;54.350;10.102;2022-08-01T14:07:44;28.60;84.40
6293;DHT22;3179;54.350;10.102;2022-08-01T14:10:11;28.60;84.20
6293;DHT22;3179;54.350;10.102;2022-08-01T14:12:38;28.60;83.80
6293;DHT22;3179;54.350;10.102;2022-08-01T14:15:06;28.50;84.30
6293;DHT22;3179;54.350;10.102;2022-08-01T14:17:33;28.40;84.10
6293;DHT22;3179;54.350;10.102;2022-08-01T14:20:01;28.20;84.20
6293;DHT22;3179;54.350;10.102;2022-08-01T14:22:30;28.10;83.50
6293;DHT22;3179;54.350;10.102;2022-08-01T14:24:57;28.00;83.60
6293;DHT22;3179;54.350;10.102;2022-08-01T14:27:24;27.80;83.70
6293;DHT22;3179;54.350;10.102;2022-08-01T14:29:51;27.70;83.90
6293;DHT22;3179;54.350;10.102;2022-08-01T14:32:18;27.50;84.40
6293;DHT22;3179;54.350;10.102;2022-08-01T14:34:44;27.50;84.10
6293;DHT22;3179;54.350;10.102;2022-08-01T14:37:13;27.40;84.10
6293;DHT22;3179;54.350;10.102;2022-08-01T14:39:40;27.30;84.10
6293;DHT22;3179;54.350;10.102;2022-08-01T14:42:07;27.20;83.80
6293;DHT22;3179;54.350;10.102;2022-08-01T14:44:33;27.10;83.60
6293;DHT22;3179;54.350;10.102;2022-08-01T14:47:00;27.10;83.90
6293;DHT22;3179;54.350;10.102;2022-08-01T14:49:28;27.10;83.60
6293;DHT22;3179;54.350;10.102;2022-08-01T14:51:55;27.10;83.60
6293;DHT22;3179;54.350;10.102;2022-08-01T14:54:23;27.00;83.40
6293;DHT22;3179;54.350;10.102;2022-08-01T14:56:50;26.90;83.00
6293;DHT22;3179;54.350;10.102;2022-08-01T14:59:18;26.80;84.10
6293;DHT22;3179;54.350;10.102;2022-08-01T15:01:45;26.70;84.50
6293;DHT22;3179;54.350;10.102;2022-08-01T15:04:12;26.70;84.90
6293;DHT22;3179;54.350;10.102;2022-08-01T15:06:39;26.70;84.40
6293;DHT22;3179;54.350;10.102;2022-08-01T15:09:06;26.70;84.10
6293;DHT22;3179;54.350;10.102;2022-08-01T15:11:34;26.50;84.10
6293;DHT22;3179;54.350;10.102;2022-08-01T15:14:00;26.40;83.70
6293;DHT22;3179;54.350;10.102;2022-08-01T15:16:45;26.40;84.30
6293;DHT22;3179;54.350;10.102;2022-08-01T15:19:12;26.40;84.70
6293;DHT22;3179;54.350;10.102;2022-08-01T15:21:38;26.40;84.70
6293;DHT22;3179;54.350;10.102;2022-08-01T15:24:06;26.40;84.60
6293;DHT22;3179;54.350;10.102;2022-08-01T15:26:34;26.30;84.50
6293;DHT22;3179;54.350;10.102;2022-08-01T15:29:01;26.30;85.20
6293;DHT22;3179;54.350;10.102;2022-08-01T15:31:28;26.30;85.00
6293;DHT22;3179;54.350;10.102;2022-08-01T15:33:54;26.30;85.40
6293;DHT22;3179;54.350;10.102;2022-08-01T15:36:22;26.20;84.70
6293;DHT22;3179;54.350;10.102;2022-08-01T15:38:56;26.20;84.90
6293;DHT22;3179;54.350;10.102;2022-08-01T15:41:23;26.20;84.50
6293;DHT22;3179;54.350;10.102;2022-08-01T15:43:51;26.10;84.70
6293;DHT22;3179;54.350;10.102;2022-08-01T15:46:18;26.00;84.40
6293;DHT22;3179;54.350;10.102;2022-08-01T15:48:45;25.90;84.90
6293;DHT22;3179;54.350;10.102;2022-08-01T15:51:12;25.90;84.50
6293;DHT22;3179;54.350;10.102;2022-08-01T15:53:39;26.00;84.30
6293;DHT22;3179;54.350;10.102;2022-08-01T15:56:05;25.90;84.30
6293;DHT22;3179;54.350;10.102;2022-08-01T15:58:32;25.90;84.40
6293;DHT22;3179;54.350;10.102;2022-08-01T16:01:01;25.90;84.40
6293;DHT22;3179;54.350;10.102;2022-08-01T16:03:27;25.90;84.40